Time;durP1;ratioP1;P1;durP2;ratioP2;P2;SDS_P1;SDS_P2;PMS_P1;PMS_P2;Temp;Humidity;BMP_temperature;BMP_pressure;BME280_temperature;BME280_humidity;BME280_pressure;Samples;Min_cycle;Max_cycle;Signal;HPM_P1;HPM_P2
2021/11/06 00:02:20;;;;;;;20.10;12.27;;;9.60;99.90;;;;;;5070811;28;20068;-90
2021/11/06 00:04:45;;;;;;;15.63;8.32;;;9.50;99.90;;;;;;5065096;28;20028;-89
2021/11/06 00:07:11;;;;;;;19.98;10.82;;;9.60;99.90;;;;;;5054187;28;20448;-90
2021/11/06 00:09:37;;;;;;;16.35;9.95;;;9.60;99.90;;;;;;5053311;28;20044;-90
2021/11/06 00:12:03;;;;;;;14.98;9.73;;;9.60;99.90;;;;;;5053495;28;20120;-91
2021/11/06 00:14:30;;;;;;;14.70;9.18;;;9.60;99.90;;;;;;5059470;28;20020;-90
2021/11/06 00:16:55;;;;;;;17.52;10.20;;;9.60;99.90;;;;;;5053888;28;20021;-90
2021/11/06 00:19:21;;;;;;;14.13;8.48;;;9.60;99.90;;;;;;5053833;28;20355;-91
2021/11/06 00:21:47;;;;;;;19.42;10.38;;;9.50;99.90;;;;;;5054535;28;20367;-92
2021/11/06 00:24:12;;;;;;;13.80;9.30;;;9.60;99.90;;;;;;5054201;28;20025;-92
2021/11/06 00:26:38;;;;;;;15.68;8.82;;;9.50;99.90;;;;;;5055234;28;20494;-91
2021/11/06 00:29:07;;;;;;;11.88;8.50;;;9.50;99.90;;;;;;5054055;28;20178;-90
2021/11/06 00:31:33;;;;;;;13.73;8.63;;;9.60;99.90;;;;;;5053689;28;20115;-90
2021/11/06 00:33:59;;;;;;;12.52;8.13;;;9.50;99.90;;;;;;5053814;28;20600;-90
2021/11/06 00:36:24;;;;;;;17.27;8.10;;;9.60;99.90;;;;;;5053931;28;20025;-89
2021/11/06 00:38:51;;;;;;;12.20;8.02;;;9.50;99.90;;;;;;5053693;28;20021;-90
2021/11/06 00:41:17;;;;;;;16.33;8.75;;;9.50;99.90;;;;;;5053647;28;20033;-91
2021/11/06 00:43:42;;;;;;;10.45;7.22;;;9.50;99.90;;;;;;5053581;28;20115;-91
2021/11/06 00:46:08;;;;;;;15.52;7.55;;;9.50;99.90;;;;;;5053517;28;20043;-89
2021/11/06 00:48:34;;;;;;;9.93;6.20;;;9.50;99.90;;;;;;5053809;28;20029;-90
2021/11/06 00:51:00;;;;;;;9.88;6.03;;;9.50;99.90;;;;;;5053371;28;20111;-90
2021/11/06 00:53:26;;;;;;;13.07;6.07;;;9.50;99.90;;;;;;5053435;28;20045;-90
2021/11/06 00:55:51;;;;;;;11.40;6.63;;;9.50;99.90;;;;;;5053543;28;20102;-89
2021/11/06 00:58:17;;;;;;;10.15;6.53;;;9.50;99.90;;;;;;5053162;28;20056;-90
2021/11/06 01:00:43;;;;;;;10.93;6.22;;;9.50;99.90;;;;;;5053354;28;20029;-91
2021/11/06 01:03:09;;;;;;;10.63;5.45;;;9.50;99.90;;;;;;5053367;28;20071;-92
2021/11/06 01:05:35;;;;;;;13.82;6.20;;;9.50;99.90;;;;;;5053093;28;20032;-89
2021/11/06 01:08:00;;;;;;;10.68;5.80;;;9.50;99.90;;;;;;5053245;28;20032;-89
2021/11/06 01:10:26;;;;;;;10.98;5.70;;;9.50;99.90;;;;;;5053076;28;20029;-90
2021/11/06 01:12:52;;;;;;;11.38;6.25;;;9.50;99.90;;;;;;5053257;28;20052;-89
2021/11/06 01:15:18;;;;;;;10.23;6.53;;;9.50;99.90;;;;;;5052902;28;20490;-89
2021/11/06 01:17:44;;;;;;;11.55;6.13;;;9.50;99.90;;;;;;5052757;28;20025;-90
2021/11/06 01:20:11;;;;;;;9.07;6.18;;;9.50;99.90;;;;;;5052822;28;20112;-91
2021/11/06 01:22:38;;;;;;;11.75;5.75;;;9.50;99.90;;;;;;5052883;28;20032;-93
2021/11/06 01:25:06;;;;;;;10.00;6.07;;;9.50;99.90;;;;;;5053027;28;20021;-90
2021/11/06 01:27:32;;;;;;;9.13;5.70;;;9.50;99.90;;;;;;5052577;28;20041;-91
2021/11/06 01:29:58;;;;;;;13.95;6.55;;;9.50;99.90;;;;;;5052605;28;20033;-91
2021/11/06 01:32:23;;;;;;;11.95;5.80;;;9.50;99.90;;;;;;5052843;28;20072;-91
2021/11/06 01:34:49;;;;;;;10.10;5.78;;;9.40;99.90;;;;;;5052562;28;20021;-91
2021/11/06 01:37:15;;;;;;;10.82;5.75;;;9.40;99.90;;;;;;5053291;28;20060;-90
2021/11/06 01:39:40;;;;;;;12.07;5.18;;;9.40;99.90;;;;;;5054411;28;20028;-90
2021/11/06 01:42:06;;;;;;;7.63;4.72;;;9.50;99.90;;;;;;5053547;28;20057;-91
2021/11/06 01:44:32;;;;;;;7.38;4.45;;;9.40;99.90;;;;;;5053620;28;20036;-91
2021/11/06 01:46:58;;;;;;;7.93;4.50;;;9.40;99.90;;;;;;5053734;28;20051;-90
2021/11/06 01:49:24;;;;;;;7.18;4.38;;;9.50;99.90;;;;;;5052996;28;20094;-91
2021/11/06 01:51:52;;;;;;;6.95;3.67;;;9.40;99.90;;;;;;5052768;28;20025;-91
2021/11/06 01:54:22;;;;;;;10.57;4.13;;;9.40;99.90;;;;;;5052690;28;20032;-91
2021/11/06 01:56:48;;;;;;;8.15;3.83;;;9.40;99.90;;;;;;5053843;28;20033;-92
2021/11/06 01:59:14;;;;;;;8.55;4.28;;;9.50;99.90;;;;;;5052315;28;20045;-91
2021/11/06 02:01:40;;;;;;;8.02;4.15;;;9.50;99.90;;;;;;5052522;28;20568;-90
2021/11/06 02:04:06;;;;;;;7.35;4.22;;;9.40;99.90;;;;;;5052881;28;20052;-91
2021/11/06 02:06:32;;;;;;;6.38;3.90;;;9.40;99.90;;;;;;5052628;28;20025;-92
2021/11/06 02:08:57;;;;;;;9.40;4.55;;;9.40;99.90;;;;;;5052612;28;20035;-91
2021/11/06 02:11:23;;;;;;;11.13;4.15;;;9.40;99.90;;;;;;5052592;28;20017;-91
2021/11/06 02:13:49;;;;;;;8.68;4.45;;;9.40;99.90;;;;;;5052653;28;20397;-91
2021/11/06 02:16:15;;;;;;;5.70;4.13;;;9.40;99.90;;;;;;5052430;28;20111;-91
2021/11/06 02:18:41;;;;;;;7.88;3.83;;;9.40;99.90;;;;;;5052407;28;20372;-90
2021/11/06 02:21:09;;;;;;;7.47;4.28;;;9.40;99.90;;;;;;5052563;28;20061;-90
2021/11/06 02:23:40;;;;;;;6.85;4.68;;;9.40;99.90;;;;;;5052376;28;20112;-90
2021/11/06 02:26:11;;;;;;;8.88;4.35;;;9.30;99.90;;;;;;5052276;28;20040;-91
2021/11/06 02:28:37;;;;;;;;;;;9.40;99.90;;;;;;5052655;28;20028;-90
2021/11/06 02:31:03;;;;;;;7.03;3.90;;;9.40;99.90;;;;;;5052213;28;20278;-91
2021/11/06 02:33:29;;;;;;;9.43;4.47;;;9.40;99.90;;;;;;5052449;28;20475;-91
2021/11/06 02:35:55;;;;;;;11.38;4.40;;;9.30;99.90;;;;;;5052360;28;20128;-91
2021/11/06 02:38:20;;;;;;;6.20;4.07;;;9.40;99.90;;;;;;5052731;28;20091;-91
2021/11/06 02:40:46;;;;;;;11.02;4.15;;;9.40;99.90;;;;;;5052480;28;20029;-92
2021/11/06 02:43:12;;;;;;;5.03;3.28;;;9.40;99.90;;;;;;5052105;28;20021;-91
2021/11/06 02:45:39;;;;;;;6.82;4.00;;;9.40;99.90;;;;;;5052166;28;20028;-90
2021/11/06 02:48:06;;;;;;;7.55;3.78;;;9.40;99.90;;;;;;5051997;28;20037;-89
2021/11/06 02:50:32;;;;;;;6.95;3.30;;;9.40;99.90;;;;;;5052069;28;20021;-91
2021/11/06 02:52:58;;;;;;;8.88;3.80;;;9.40;99.90;;;;;;5052341;28;20048;-91
2021/11/06 02:55:23;;;;;;;10.00;3.88;;;9.40;99.90;;;;;;5053570;28;20091;-91
2021/11/06 02:57:50;;;;;;;7.90;4.13;;;9.40;99.90;;;;;;5055597;28;20033;-91
2021/11/06 03:00:17;;;;;;;8.73;4.20;;;9.40;99.90;;;;;;5055823;28;20482;-91
2021/11/06 03:02:43;;;;;;;9.18;3.78;;;9.30;99.90;;;;;;5055692;28;20017;-89
2021/11/06 03:05:10;;;;;;;10.65;4.10;;;9.40;99.90;;;;;;5055511;28;20036;-91
2021/11/06 03:07:37;;;;;;;7.72;3.92;;;9.40;99.90;;;;;;5055258;28;20040;-90
2021/11/06 03:10:08;;;;;;;6.63;3.30;;;9.40;99.90;;;;;;5055367;28;20068;-90
2021/11/06 03:12:36;;;;;;;5.30;3.42;;;9.40;99.90;;;;;;5055126;28;20140;-90
2021/11/06 03:15:02;;;;;;;6.63;3.65;;;9.40;99.90;;;;;;5055628;28;20021;-90
2021/11/06 03:17:28;;;;;;;7.28;2.88;;;9.40;99.90;;;;;;5056613;28;20048;-90
2021/11/06 03:19:54;;;;;;;9.38;3.78;;;9.40;99.90;;;;;;5055162;28;20025;-90
2021/11/06 03:22:20;;;;;;;5.18;3.22;;;9.40;99.90;;;;;;5055235;28;20056;-90
2021/11/06 03:24:45;;;;;;;7.30;3.65;;;9.40;99.90;;;;;;5055432;28;20024;-90
2021/11/06 03:27:11;;;;;;;10.23;3.97;;;9.40;99.90;;;;;;5055049;28;20041;-90
2021/11/06 03:29:37;;;;;;;8.52;3.53;;;9.40;99.90;;;;;;5054908;28;20027;-90
2021/11/06 03:32:05;;;;;;;7.78;3.70;;;9.40;99.90;;;;;;5055041;28;20032;-90
2021/11/06 03:34:30;;;;;;;7.57;3.83;;;9.40;99.90;;;;;;5054951;28;20033;-89
2021/11/06 03:36:57;;;;;;;7.38;3.60;;;9.50;99.90;;;;;;5054776;28;20039;-91
2021/11/06 03:39:23;;;;;;;6.05;3.70;;;9.50;99.90;;;;;;5055079;28;20078;-90
2021/11/06 03:41:48;;;;;;;14.00;5.10;;;9.50;99.90;;;;;;5054765;28;20029;-90
2021/11/06 03:44:14;;;;;;;6.30;3.50;;;9.50;99.90;;;;;;5054658;28;20025;-89
2021/11/06 03:46:40;;;;;;;5.97;3.20;;;9.50;99.90;;;;;;5054895;28;20551;-91
2021/11/06 03:49:06;;;;;;;10.75;3.70;;;9.50;99.90;;;;;;5053152;28;20027;-90
2021/11/06 03:51:32;;;;;;;7.55;3.55;;;9.50;99.90;;;;;;5054848;28;20036;-90
2021/11/06 03:53:59;;;;;;;8.25;3.05;;;9.50;99.90;;;;;;5054574;28;20044;-90
2021/11/06 03:56:26;;;;;;;6.63;3.30;;;9.50;99.90;;;;;;5054451;28;20355;-90
2021/11/06 03:58:52;;;;;;;6.22;3.22;;;9.50;99.90;;;;;;5054311;28;20053;-90
2021/11/06 04:01:18;;;;;;;9.40;3.42;;;9.50;99.90;;;;;;5054614;28;20069;-90
2021/11/06 04:03:44;;;;;;;8.35;3.45;;;9.50;99.90;;;;;;5054631;28;20078;-90
2021/11/06 04:06:10;;;;;;;6.97;3.47;;;9.50;99.90;;;;;;5053941;28;20024;-89
2021/11/06 04:08:36;;;;;;;8.15;3.72;;;9.50;99.90;;;;;;5054463;28;20033;-91
2021/11/06 04:11:02;;;;;;;7.03;3.65;;;9.50;99.90;;;;;;5054209;28;20064;-90
2021/11/06 04:13:28;;;;;;;7.55;3.70;;;9.50;99.90;;;;;;5054321;28;20073;-90
2021/11/06 04:15:54;;;;;;;11.60;3.65;;;9.50;99.90;;;;;;5054272;28;20029;-91
2021/11/06 04:18:20;;;;;;;7.70;3.28;;;9.40;99.90;;;;;;5054306;28;20053;-90
2021/11/06 04:20:46;;;;;;;6.25;3.67;;;9.50;99.90;;;;;;5054124;28;20021;-91
2021/11/06 04:23:12;;;;;;;7.32;3.78;;;9.50;99.90;;;;;;5053975;28;20055;-91
2021/11/06 04:25:38;;;;;;;7.30;3.33;;;9.50;99.90;;;;;;5054060;28;20026;-89
2021/11/06 04:28:04;;;;;;;8.10;3.35;;;9.50;99.90;;;;;;5053998;28;20131;-90
2021/11/06 04:30:29;;;;;;;8.35;3.00;;;9.50;99.90;;;;;;5054000;28;20032;-89
2021/11/06 04:32:55;;;;;;;6.72;3.40;;;9.50;99.90;;;;;;5053909;28;20037;-91
2021/11/06 04:35:21;;;;;;;6.57;3.20;;;9.50;99.90;;;;;;5053886;28;20120;-90
2021/11/06 04:37:47;;;;;;;5.93;3.03;;;9.50;99.90;;;;;;5053743;28;20025;-90
2021/11/06 04:40:13;;;;;;;6.15;3.25;;;9.50;99.90;;;;;;5053817;28;20516;-91
2021/11/06 04:42:39;;;;;;;6.80;3.33;;;9.50;99.90;;;;;;5053767;28;20029;-90
2021/11/06 04:45:06;;;;;;;6.70;2.80;;;9.50;99.90;;;;;;5053664;28;20039;-91
2021/11/06 04:47:32;;;;;;;5.65;3.40;;;9.50;99.90;;;;;;5053441;28;20032;-90
2021/11/06 04:49:58;;;;;;;7.00;3.05;;;9.50;99.90;;;;;;5053898;28;20124;-90
2021/11/06 04:52:24;;;;;;;3.03;2.45;;;9.50;99.90;;;;;;5053612;28;20472;-91
2021/11/06 04:54:50;;;;;;;10.07;3.00;;;9.50;99.90;;;;;;5053492;28;20028;-90
2021/11/06 04:57:15;;;;;;;5.88;3.10;;;9.50;99.90;;;;;;5053360;28;20029;-90
2021/11/06 04:59:41;;;;;;;6.22;3.10;;;9.50;99.90;;;;;;5053219;28;20159;-90
2021/11/06 05:02:07;;;;;;;7.00;3.17;;;9.50;99.90;;;;;;5053330;28;20059;-90
2021/11/06 05:04:33;;;;;;;4.53;2.70;;;9.50;99.90;;;;;;5053320;28;20606;-91
2021/11/06 05:06:59;;;;;;;5.43;3.17;;;9.50;99.90;;;;;;5053132;28;20123;-90
2021/11/06 05:09:24;;;;;;;5.45;2.78;;;9.50;99.90;;;;;;5055344;28;20056;-90
2021/11/06 05:11:50;;;;;;;7.70;2.92;;;9.50;99.90;;;;;;5060276;28;20047;-90
2021/11/06 05:14:17;;;;;;;8.25;3.50;;;9.50;99.90;;;;;;5062723;28;20055;-90
2021/11/06 05:16:43;;;;;;;5.53;2.55;;;9.50;99.90;;;;;;5058749;28;20021;-90
2021/11/06 05:19:09;;;;;;;9.55;3.30;;;9.50;99.90;;;;;;5053366;28;20036;-92
2021/11/06 05:21:38;;;;;;;7.13;3.33;;;9.40;99.90;;;;;;5059000;28;20463;-90
2021/11/06 05:24:08;;;;;;;7.43;3.60;;;9.50;99.90;;;;;;5053603;28;20033;-91
2021/11/06 05:26:34;;;;;;;4.40;2.30;;;9.40;99.90;;;;;;5057632;28;20127;-91
2021/11/06 05:29:03;;;;;;;5.82;3.20;;;9.40;99.90;;;;;;5053907;28;20078;-91
2021/11/06 05:31:30;;;;;;;9.48;3.10;;;9.40;99.90;;;;;;5056500;28;20547;-91
2021/11/06 05:33:56;;;;;;;6.97;3.30;;;9.40;99.90;;;;;;5063047;28;20029;-91
2021/11/06 05:36:22;;;;;;;4.53;2.88;;;9.40;99.90;;;;;;5069410;28;20028;-91
2021/11/06 05:38:47;;;;;;;7.47;3.10;;;9.40;99.90;;;;;;5070307;28;20040;-91
2021/11/06 05:41:13;;;;;;;8.82;2.80;;;9.40;99.90;;;;;;5069909;28;20033;-91
2021/11/06 05:43:39;;;;;;;4.00;2.60;;;9.40;99.90;;;;;;5066155;28;20056;-90
2021/11/06 05:46:04;;;;;;;6.65;2.92;;;9.40;99.90;;;;;;5070481;28;20028;-91
2021/11/06 05:48:30;;;;;;;5.97;2.70;;;9.40;99.90;;;;;;5070453;28;20040;-90
2021/11/06 05:50:56;;;;;;;5.55;2.85;;;9.40;99.90;;;;;;5057703;28;20056;-91
2021/11/06 05:53:21;;;;;;;9.73;2.78;;;9.40;99.90;;;;;;5058918;28;20125;-91
2021/11/06 05:55:48;;;;;;;5.90;2.80;;;9.40;99.90;;;;;;5057405;28;20059;-90
2021/11/06 05:58:13;;;;;;;8.38;2.80;;;9.50;99.90;;;;;;5056209;28;20128;-91
2021/11/06 06:00:40;;;;;;;4.10;2.60;;;9.40;99.90;;;;;;5054492;28;20053;-92
2021/11/06 06:03:06;;;;;;;8.55;2.70;;;9.40;99.90;;;;;;5054602;28;20021;-91
2021/11/06 06:05:31;;;;;;;4.10;2.17;;;9.50;99.90;;;;;;5045591;28;20025;-90
2021/11/06 06:07:57;;;;;;;5.65;2.15;;;9.50;99.90;;;;;;5052979;28;20033;-91
2021/11/06 06:10:23;;;;;;;7.55;2.40;;;9.50;99.90;;;;;;5044564;28;20108;-90
2021/11/06 06:12:52;;;;;;;5.95;2.30;;;9.50;99.90;;;;;;5052850;28;20439;-91
2021/11/06 06:15:20;;;;;;;6.20;2.20;;;9.50;99.90;;;;;;5043583;28;20487;-91
2021/11/06 06:17:47;;;;;;;8.38;2.35;;;9.50;99.90;;;;;;5051757;28;20079;-91
2021/11/06 06:20:13;;;;;;;4.13;2.10;;;9.50;99.90;;;;;;5051941;28;20024;-90
2021/11/06 06:22:39;;;;;;;5.70;3.00;;;9.50;99.90;;;;;;5052259;28;20111;-90
2021/11/06 06:25:05;;;;;;;9.48;2.22;;;9.50;99.90;;;;;;5043507;28;20040;-91
2021/11/06 06:27:31;;;;;;;5.80;2.50;;;9.50;99.90;;;;;;5054652;28;20034;-90
2021/11/06 06:29:57;;;;;;;5.10;1.95;;;9.50;99.90;;;;;;5054421;28;20032;-90
2021/11/06 06:32:23;;;;;;;4.82;2.20;;;9.50;99.90;;;;;;5047710;28;20025;-91
2021/11/06 06:34:49;;;;;;;8.52;2.90;;;9.50;99.90;;;;;;5052058;28;20021;-91
2021/11/06 06:37:14;;;;;;;3.22;1.92;;;9.50;99.90;;;;;;5057126;28;20487;-91
2021/11/06 06:39:40;;;;;;;1.63;1.52;;;9.50;99.90;;;;;;5056958;28;20029;-91
2021/11/06 06:42:06;;;;;;;3.08;1.85;;;9.50;99.90;;;;;;5056902;28;20463;-91
2021/11/06 06:44:32;;;;;;;4.82;2.10;;;9.50;99.90;;;;;;5057081;28;20112;-90
2021/11/06 06:46:58;;;;;;;4.10;2.03;;;9.50;99.90;;;;;;5057259;28;20056;-90
2021/11/06 06:49:24;;;;;;;3.88;1.58;;;9.50;99.90;;;;;;5057580;28;20472;-90
2021/11/06 06:51:50;;;;;;;4.22;1.80;;;9.50;99.90;;;;;;5057292;28;20036;-90
2021/11/06 06:54:16;;;;;;;4.75;2.05;;;9.50;99.90;;;;;;5056825;28;20032;-90
2021/11/06 06:56:44;;;;;;;3.63;1.90;;;9.50;99.90;;;;;;5057069;28;20112;-90
2021/11/06 06:59:11;;;;;;;4.43;2.30;;;9.50;99.90;;;;;;5056193;28;20049;-90
2021/11/06 07:01:38;;;;;;;4.88;2.03;;;9.50;99.90;;;;;;5056270;28;20048;-91
2021/11/06 07:04:03;;;;;;;3.72;1.90;;;9.50;99.90;;;;;;5055956;28;20025;-90
2021/11/06 07:06:29;;;;;;;2.97;1.65;;;9.60;99.90;;;;;;5055917;28;20044;-90
2021/11/06 07:08:57;;;;;;;3.75;1.60;;;9.50;99.90;;;;;;5055968;28;20029;-91
2021/11/06 07:11:22;;;;;;;5.50;1.48;;;9.50;99.90;;;;;;5056239;28;20544;-90
2021/11/06 07:13:49;;;;;;;3.33;1.73;;;9.50;99.90;;;;;;5055820;28;20033;-90
2021/11/06 07:16:14;;;;;;;3.17;1.90;;;9.50;99.90;;;;;;5056052;28;20033;-91
2021/11/06 07:18:41;;;;;;;2.15;1.60;;;9.50;99.90;;;;;;5054973;28;20491;-90
2021/11/06 07:21:06;;;;;;;4.78;2.00;;;9.50;99.90;;;;;;5055626;28;20025;-89
2021/11/06 07:23:32;;;;;;;3.25;1.42;;;9.50;99.90;;;;;;5047425;28;20028;-88
2021/11/06 07:26:03;;;;;;;2.53;1.75;;;9.50;99.90;;;;;;5048936;28;20025;-90
2021/11/06 07:28:30;;;;;;;;;;;9.50;99.90;;;;;;5049699;28;20441;-91
2021/11/06 07:30:56;;;;;;;3.97;1.90;;;9.50;99.90;;;;;;5053752;28;20283;-92
2021/11/06 07:33:23;;;;;;;5.47;1.63;;;9.50;99.90;;;;;;5055579;28;20029;-91
2021/11/06 07:35:49;;;;;;;1.95;1.25;;;9.50;99.90;;;;;;5049785;28;20098;-90
2021/11/06 07:38:15;;;;;;;5.43;1.50;;;9.50;99.90;;;;;;5047099;28;20025;-90
2021/11/06 07:40:41;;;;;;;6.00;1.50;;;9.50;99.90;;;;;;5055452;28;20032;-89
2021/11/06 07:43:07;;;;;;;2.75;1.30;;;9.50;99.90;;;;;;5055391;28;20032;-90
2021/11/06 07:45:33;;;;;;;3.25;1.42;;;9.50;99.90;;;;;;5049304;28;20021;-90
2021/11/06 07:47:59;;;;;;;3.85;1.00;;;9.50;99.90;;;;;;5039718;28;20048;-90
2021/11/06 07:50:25;;;;;;;5.38;0.98;;;9.50;99.90;;;;;;5054604;28;20029;-90
2021/11/06 07:52:51;;;;;;;3.88;1.35;;;9.50;99.90;;;;;;5054828;28;20051;-90
2021/11/06 07:55:17;;;;;;;7.53;1.40;;;9.50;99.90;;;;;;5054584;28;20425;-90
2021/11/06 07:57:43;;;;;;;2.45;0.93;;;9.50;99.90;;;;;;5053952;28;20136;-90
2021/11/06 08:00:12;;;;;;;4.32;1.20;;;9.40;99.90;;;;;;5054706;28;20075;-90
2021/11/06 08:02:39;;;;;;;2.22;1.23;;;9.50;99.90;;;;;;5054265;28;20032;-90
2021/11/06 08:05:10;;;;;;;4.15;1.00;;;9.50;99.90;;;;;;5054320;28;20048;-91
2021/11/06 08:07:36;;;;;;;3.97;1.10;;;9.50;99.90;;;;;;5054314;28;20028;-89
2021/11/06 08:10:03;;;;;;;4.93;0.88;;;9.50;99.90;;;;;;5054215;28;20020;-90
2021/11/06 08:12:30;;;;;;;5.50;1.00;;;9.50;99.90;;;;;;5060407;28;20025;-90
2021/11/06 08:14:56;;;;;;;3.70;0.90;;;9.50;99.90;;;;;;5053823;28;20021;-90
2021/11/06 08:17:21;;;;;;;1.70;1.30;;;9.60;99.90;;;;;;5054289;28;20044;-90
2021/11/06 08:19:47;;;;;;;2.63;1.13;;;9.60;99.90;;;;;;5054433;28;20028;-91
2021/11/06 08:22:13;;;;;;;3.10;1.50;;;9.60;99.90;;;;;;5054264;28;20029;-90
2021/11/06 08:24:39;;;;;;;2.22;1.17;;;9.60;99.90;;;;;;5054174;28;20028;-90
2021/11/06 08:27:06;;;;;;;4.75;1.63;;;9.60;99.90;;;;;;5054124;28;20386;-90
2021/11/06 08:29:32;;;;;;;4.00;1.63;;;9.60;99.90;;;;;;5053475;28;20467;-89
2021/11/06 08:32:01;;;;;;;2.45;0.98;;;9.60;99.90;;;;;;5054206;28;20061;-89
2021/11/06 08:34:27;;;;;;;0.65;0.65;;;9.60;99.90;;;;;;5053382;28;20090;-89
2021/11/06 08:36:54;;;;;;;3.55;1.42;;;9.60;99.90;;;;;;5053765;28;20398;-89
2021/11/06 08:39:20;;;;;;;5.47;1.20;;;9.70;99.90;;;;;;5053781;28;20120;-89
2021/11/06 08:41:47;;;;;;;3.58;1.10;;;9.70;99.90;;;;;;5053759;28;20045;-89
2021/11/06 08:44:18;;;;;;;7.70;1.10;;;9.70;99.90;;;;;;5053472;28;20037;-89
2021/11/06 08:46:45;;;;;;;1.10;0.63;;;9.80;99.90;;;;;;5053906;28;20044;-90
2021/11/06 08:49:15;;;;;;;5.32;0.90;;;9.80;99.90;;;;;;5053776;28;20567;-91
2021/11/06 08:51:42;;;;;;;2.55;1.55;;;9.80;99.90;;;;;;5053768;28;20039;-90
2021/11/06 08:54:08;;;;;;;2.72;0.70;;;9.90;99.90;;;;;;5053766;28;20112;-91
2021/11/06 08:56:34;;;;;;;3.90;0.80;;;9.90;99.90;;;;;;5053863;28;20064;-91
2021/11/06 08:58:59;;;;;;;3.65;0.80;;;9.90;99.90;;;;;;5053840;28;20639;-92
2021/11/06 09:01:25;;;;;;;1.65;0.70;;;9.90;99.90;;;;;;5053865;28;20021;-91
2021/11/06 09:03:52;;;;;;;7.90;2.63;;;9.90;99.90;;;;;;5053764;28;20032;-91
2021/11/06 09:06:19;;;;;;;2.20;0.90;;;10.00;99.90;;;;;;5053399;28;20250;-91
2021/11/06 09:08:46;;;;;;;3.17;0.85;;;9.90;99.90;;;;;;5053513;28;20176;-92
2021/11/06 09:11:15;;;;;;;3.95;0.70;;;10.00;99.90;;;;;;5053787;28;20021;-91
2021/11/06 09:13:51;;;;;;;5.78;1.25;;;10.10;99.90;;;;;;5053773;28;20482;-93
2021/11/06 09:16:17;;;;;;;4.38;0.88;;;10.10;99.90;;;;;;5053475;28;20071;-90
2021/11/06 09:18:43;;;;;;;1.98;0.73;;;10.10;99.90;;;;;;5053210;28;20036;-90
2021/11/06 09:21:14;;;;;;;3.58;0.95;;;10.10;99.90;;;;;;5053091;28;20374;-91
2021/11/06 09:23:41;;;;;;;3.88;0.60;;;10.10;99.90;;;;;;5053184;28;20033;-90
2021/11/06 09:26:07;;;;;;;2.35;0.85;;;10.10;99.90;;;;;;5052757;28;20043;-90
2021/11/06 09:28:40;;;;;;;0.90;0.60;;;10.10;99.90;;;;;;5052634;28;20044;-92
2021/11/06 09:31:06;;;;;;;3.47;1.20;;;10.10;99.90;;;;;;5052897;28;20029;-91
2021/11/06 09:33:32;;;;;;;2.95;1.00;;;10.20;99.90;;;;;;5052936;28;20116;-91
2021/11/06 09:35:57;;;;;;;1.88;0.47;;;10.20;99.90;;;;;;5052906;28;20049;-91
2021/11/06 09:38:23;;;;;;;5.15;0.85;;;10.20;99.90;;;;;;5052219;28;20087;-91
2021/11/06 09:40:49;;;;;;;3.10;0.80;;;10.10;99.90;;;;;;5053049;28;20033;-91
2021/11/06 09:43:17;;;;;;;4.38;0.98;;;10.20;99.90;;;;;;5046914;28;20078;-91
2021/11/06 09:45:46;;;;;;;3.33;0.90;;;10.20;99.90;;;;;;5044041;28;20030;-92
2021/11/06 09:48:12;;;;;;;2.60;0.98;;;10.20;99.90;;;;;;5052443;28;20041;-92
2021/11/06 09:50:38;;;;;;;1.52;0.70;;;10.20;99.90;;;;;;5046066;28;20017;-90
2021/11/06 09:53:04;;;;;;;2.45;1.10;;;10.20;99.90;;;;;;5051953;28;20025;-91
2021/11/06 09:55:32;;;;;;;1.25;0.85;;;10.20;99.90;;;;;;5051415;28;20101;-89
2021/11/06 09:57:57;;;;;;;2.83;1.00;;;10.20;99.90;;;;;;5043744;28;20054;-90
2021/11/06 10:00:24;;;;;;;3.13;0.65;;;10.20;99.90;;;;;;5057760;28;20032;-91
2021/11/06 10:02:54;;;;;;;1.88;0.63;;;10.30;99.90;;;;;;5052261;28;20170;-90
2021/11/06 10:05:46;;;;;;;7.13;0.83;;;10.30;99.90;;;;;;5052063;28;20028;-91
2021/11/06 10:08:21;;;;;;;5.47;0.63;;;10.30;99.90;;;;;;5050163;28;20037;-90
2021/11/06 10:10:48;;;;;;;0.60;0.40;;;10.30;99.90;;;;;;5049561;28;20032;-89
2021/11/06 10:13:14;;;;;;;5.72;1.90;;;10.30;99.90;;;;;;5043356;28;20497;-90
2021/11/06 10:15:52;;;;;;;2.40;0.80;;;10.20;99.90;;;;;;5051713;28;20021;-92
2021/11/06 10:18:23;;;;;;;1.23;0.80;;;10.30;99.90;;;;;;5043279;28;20017;-90
2021/11/06 10:20:57;;;;;;;2.53;0.88;;;10.20;99.90;;;;;;5050454;28;20102;-91
2021/11/06 10:23:36;;;;;;;4.75;1.00;;;10.30;99.90;;;;;;5043229;28;20033;-92
2021/11/06 10:26:15;;;;;;;3.08;0.88;;;10.30;99.90;;;;;;5051004;28;20028;-91
2021/11/06 10:28:42;;;;;;;3.38;0.95;;;10.30;99.90;;;;;;5052703;28;20040;-91
2021/11/06 10:31:09;;;;;;;2.28;0.90;;;10.30;99.90;;;;;;5042995;28;20018;-92
2021/11/06 10:33:47;;;;;;;3.58;1.10;;;10.40;99.90;;;;;;5051010;28;20028;-91
2021/11/06 10:36:21;;;;;;;1.88;1.10;;;10.40;99.90;;;;;;5049554;28;20017;-93
2021/11/06 10:39:05;;;;;;;3.15;0.95;;;10.40;99.90;;;;;;5044421;28;20056;-92
2021/11/06 10:41:34;;;;;;;2.80;1.10;;;10.40;99.90;;;;;;5058985;28;20032;-92
2021/11/06 10:44:00;;;;;;;3.50;1.10;;;10.40;99.90;;;;;;5052480;28;20114;-91
2021/11/06 10:46:31;;;;;;;3.33;0.88;;;10.50;99.90;;;;;;5052463;28;20083;-92
2021/11/06 10:48:58;;;;;;;2.75;1.10;;;10.40;99.90;;;;;;5052760;28;20116;-92
2021/11/06 10:51:24;;;;;;;5.95;1.08;;;10.40;99.90;;;;;;5052225;28;20047;-92
2021/11/06 10:54:00;;;;;;;2.13;0.90;;;10.50;99.90;;;;;;5052490;28;20029;-92
2021/11/06 10:56:43;;;;;;;3.13;1.00;;;10.50;99.90;;;;;;5052272;28;20029;-93
2021/11/06 10:59:18;;;;;;;3.45;0.90;;;10.50;99.90;;;;;;5052147;28;20053;-92
2021/11/06 11:01:46;;;;;;;4.32;1.42;;;10.50;99.90;;;;;;5052041;28;20025;-92
2021/11/06 11:04:15;;;;;;;3.15;1.00;;;10.50;99.90;;;;;;5051885;28;20112;-91
2021/11/06 11:06:47;;;;;;;3.38;0.77;;;10.60;99.90;;;;;;5051831;28;20040;-92
2021/11/06 11:09:25;;;;;;;1.75;0.63;;;10.60;99.90;;;;;;5051823;28;20116;-91
2021/11/06 11:11:53;;;;;;;1.63;0.70;;;10.60;99.90;;;;;;5051854;28;20053;-91
2021/11/06 11:14:22;;;;;;;2.63;0.70;;;10.70;99.90;;;;;;5051922;28;20502;-90
2021/11/06 11:16:57;;;;;;;1.90;0.60;;;10.70;99.90;;;;;;5053985;28;20029;-91
2021/11/06 11:19:36;;;;;;;3.28;1.00;;;10.70;99.90;;;;;;5055621;28;20025;-90
2021/11/06 11:22:04;;;;;;;2.08;0.70;;;10.70;99.90;;;;;;5055527;28;20072;-90
2021/11/06 11:24:30;;;;;;;2.63;0.68;;;10.70;99.90;;;;;;5055356;28;20155;-91
2021/11/06 11:26:57;;;;;;;1.55;0.80;;;10.70;99.90;;;;;;5055389;28;20102;-91
2021/11/06 11:29:27;;;;;;;2.45;0.90;;;10.70;99.90;;;;;;5055086;28;20600;-92
2021/11/06 11:31:53;;;;;;;1.23;0.65;;;10.80;99.90;;;;;;5055069;28;20049;-92
2021/11/06 11:34:20;;;;;;;2.20;0.60;;;10.80;99.90;;;;;;5055348;28;20036;-91
2021/11/06 11:36:47;;;;;;;3.95;0.82;;;10.80;99.90;;;;;;5055149;28;20017;-91
2021/11/06 11:39:15;;;;;;;2.75;1.00;;;10.90;99.90;;;;;;5054666;28;20486;-90
2021/11/06 11:41:43;;;;;;;2.00;0.90;;;10.90;99.90;;;;;;5054966;28;20471;-90
2021/11/06 11:44:30;;;;;;;1.30;0.65;;;11.00;99.90;;;;;;5055051;28;20090;-90
2021/11/06 11:47:01;;;;;;;3.58;0.70;;;11.00;99.90;;;;;;5054924;28;20532;-89
2021/11/06 11:49:33;;;;;;;1.98;0.50;;;11.00;99.90;;;;;;5055027;28;20482;-90
2021/11/06 11:52:23;;;;;;;1.92;0.60;;;11.10;99.90;;;;;;5054799;28;20414;-90
2021/11/06 11:54:56;;;;;;;2.15;0.73;;;11.10;99.90;;;;;;5053731;28;20066;-92
2021/11/06 11:57:21;;;;;;;2.60;0.60;;;11.20;99.90;;;;;;5056719;28;20097;-92
2021/11/06 11:59:47;;;;;;;3.65;0.90;;;11.20;99.90;;;;;;5054277;28;20542;-94
2021/11/06 12:02:27;;;;;;;1.98;0.88;;;11.20;99.90;;;;;;5054661;28;20067;-90
2021/11/06 12:05:14;;;;;;;3.30;0.63;;;11.30;99.90;;;;;;5054607;28;20021;-92
2021/11/06 12:07:43;;;;;;;1.90;0.60;;;11.30;99.90;;;;;;5054850;28;20071;-91
2021/11/06 12:10:31;;;;;;;4.97;0.70;;;11.40;99.90;;;;;;5054318;28;20449;-93
2021/11/06 12:12:57;;;;;;;3.40;0.80;;;11.40;99.90;;;;;;5051398;28;20093;-90
2021/11/06 12:15:54;;;;;;;1.75;0.65;;;11.50;99.90;;;;;;5045193;28;20048;-90
2021/11/06 12:18:35;;;;;;;9.95;1.60;;;11.40;99.90;;;;;;5054137;28;20108;-92
2021/11/06 12:21:17;;;;;;;;;;;11.40;99.90;;;;;;5055029;28;20029;-91
2021/11/06 12:23:44;;;;;;;1.48;0.63;;;11.40;99.90;;;;;;5054068;28;20362;-90
2021/11/06 12:26:22;;;;;;;1.90;0.77;;;11.40;99.90;;;;;;5070671;28;20092;-91
2021/11/06 12:29:17;;;;;;;4.00;0.55;;;11.40;99.90;;;;;;5055330;28;20339;-91
2021/11/06 12:31:45;;;;;;;1.73;0.80;;;11.50;99.90;;;;;;5047540;28;20036;-91
2021/11/06 12:34:35;;;;;;;1.95;0.70;;;11.60;99.90;;;;;;5034740;28;20057;-91
2021/11/06 12:37:05;;;;;;;1.45;0.32;;;11.70;99.90;;;;;;5050819;28;20017;-91
2021/11/06 12:39:46;;;;;;;2.25;0.60;;;11.90;99.90;;;;;;5035583;28;20022;-90
2021/11/06 12:42:18;;;;;;;4.43;0.60;;;12.10;99.90;;;;;;5035130;28;20052;-91
2021/11/06 12:45:13;;;;;;;5.68;0.82;;;12.30;99.90;;;;;;5035090;28;20025;-91
2021/11/06 12:48:10;;;;;;;2.13;0.93;;;12.40;99.90;;;;;;5033847;28;20045;-92
2021/11/06 12:50:41;;;;;;;2.92;0.35;;;12.40;99.90;;;;;;5034149;28;20052;-91
2021/11/06 12:53:07;;;;;;;4.50;0.77;;;12.30;99.90;;;;;;5034241;28;20548;-91
2021/11/06 12:55:33;;;;;;;2.45;0.50;;;12.30;99.90;;;;;;5056279;28;20022;-91
2021/11/06 12:58:00;;;;;;;2.05;0.50;;;12.30;99.90;;;;;;5061172;28;20098;-92